Time;durP1;ratioP1;P1;durP2;ratioP2;P2;SDS_P1;SDS_P2;PMS_P1;PMS_P2;Temp;Humidity;BMP_temperature;BMP_pressure;BME280_temperature;BME280_humidity;BME280_pressure;Samples;Min_cycle;Max_cycle;Signal;HPM_P1;HPM_P2
2023/10/10 00:00:47;;;;;;;0.00;0.00;;;;;;;14.63;93.24;100778.31;4955306;28;20038;-74
2023/10/10 00:03:13;;;;;;;0.00;0.00;;;;;;;14.63;93.31;100767.31;4956002;28;20038;-74
2023/10/10 00:05:40;;;;;;;0.00;0.00;;;;;;;14.63;93.02;100761.81;4943767;28;20031;-73
2023/10/10 00:08:09;;;;;;;0.00;0.00;;;;;;;14.71;93.28;100779.66;4923497;28;20278;-73
2023/10/10 00:10:36;;;;;;;0.00;0.00;;;;;;;14.69;93.00;100777.19;4957134;28;20042;-75
2023/10/10 00:13:04;;;;;;;0.00;0.00;;;;;;;14.64;93.17;100779.97;4944989;28;20042;-74
2023/10/10 00:15:34;;;;;;;0.00;0.00;;;;;;;14.59;93.54;100777.22;4944267;28;20665;-75
2023/10/10 00:18:10;;;;;;;0.00;0.00;;;;;;;14.53;93.77;100772.84;4958834;28;20129;-74
2023/10/10 00:20:41;;;;;;;0.00;0.00;;;;;;;14.45;94.21;100766.81;4958373;28;20066;-73
2023/10/10 00:23:10;;;;;;;0.00;0.00;;;;;;;14.43;94.63;100760.78;4931770;28;20035;-75
2023/10/10 00:25:38;;;;;;;0.00;0.00;;;;;;;14.42;94.51;100753.63;4944471;28;20069;-74
2023/10/10 00:28:16;;;;;;;0.00;0.00;;;;;;;14.43;94.40;100758.03;4944143;28;20114;-75
2023/10/10 00:30:45;;;;;;;0.00;0.00;;;;;;;14.37;94.41;100753.69;4993149;23;20039;-75
2023/10/10 00:33:16;;;;;;;0.00;0.00;;;;;;;14.34;94.58;100776.25;4975084;28;20031;-74
2023/10/10 00:35:42;;;;;;;0.00;0.00;;;;;;;14.25;94.70;100761.44;4980396;28;20050;-74
2023/10/10 00:38:17;;;;;;;0.00;0.00;;;;;;;14.23;94.86;100766.41;4943389;28;20030;-74
2023/10/10 00:40:46;;;;;;;0.00;0.00;;;;;;;14.14;94.80;100755.97;4960036;28;20480;-74
2023/10/10 00:43:22;;;;;;;0.00;0.00;;;;;;;14.08;95.16;100762.63;4940055;28;20378;-74
2023/10/10 00:45:52;;;;;;;0.00;0.00;;;;;;;14.00;95.74;100757.69;4953937;28;20014;-73
2023/10/10 00:48:22;;;;;;;0.00;0.00;;;;;;;13.89;95.90;100754.16;4963834;28;20031;-74
2023/10/10 00:51:05;;;;;;;0.00;0.00;;;;;;;13.85;96.04;100768.75;4960366;28;20404;-74
2023/10/10 00:53:33;;;;;;;0.00;0.00;;;;;;;13.74;96.09;100746.78;4956859;28;20037;-74
2023/10/10 00:56:00;;;;;;;0.00;0.00;;;;;;;13.71;96.21;100763.84;4944362;28;20430;-73
2023/10/10 00:58:35;;;;;;;0.00;0.00;;;;;;;13.71;96.70;100763.84;4946092;28;20481;-73
2023/10/10 01:01:19;;;;;;;0.00;0.00;;;;;;;13.64;96.48;100749.56;4942371;28;20077;-74
2023/10/10 01:03:49;;;;;;;0.00;0.00;;;;;;;13.59;96.40;100757.81;4945889;28;20030;-73
2023/10/10 01:06:29;;;;;;;0.00;0.00;;;;;;;13.51;96.60;100742.72;4957376;28;20038;-73
2023/10/10 01:11:42;;;;;;;0.00;0.00;;;;;;;13.44;97.31;100742.19;4952501;28;20800;-74
2023/10/10 01:14:08;;;;;;;0.00;0.00;;;;;;;13.46;97.29;100747.41;4948837;28;20627;-75
2023/10/10 01:16:33;;;;;;;0.00;0.00;;;;;;;13.43;97.52;100746.03;4952505;28;20030;-73
2023/10/10 01:18:59;;;;;;;0.00;0.00;;;;;;;13.42;98.23;100745.22;4963776;28;20027;-72
2023/10/10 01:21:43;;;;;;;0.00;0.00;;;;;;;13.43;97.92;100735.88;4957240;28;20047;-73
2023/10/10 01:24:11;;;;;;;0.00;0.00;;;;;;;13.37;98.01;100728.72;4951700;28;20068;-74
2023/10/10 01:26:37;;;;;;;0.00;0.00;;;;;;;13.42;98.23;100727.91;4972756;28;20599;-74
2023/10/10 01:31:51;;;;;;;0.00;0.00;;;;;;;13.50;98.38;100724.59;4972633;28;20093;-74
2023/10/10 01:34:39;;;;;;;0.00;0.00;;;;;;;13.56;97.58;100723.47;4970620;28;20038;-74
2023/10/10 01:37:13;;;;;;;0.00;0.00;;;;;;;13.61;97.49;100722.66;4960785;28;20113;-74
2023/10/10 01:39:54;;;;;;;0.00;0.00;;;;;;;13.65;97.24;100718.22;4971465;28;20039;-75
2023/10/10 01:42:31;;;;;;;0.00;0.00;;;;;;;13.65;97.61;100709.97;4967319;28;20165;-73
2023/10/10 01:45:02;;;;;;;0.00;0.00;;;;;;;13.66;97.45;100717.13;4968970;28;20038;-73
2023/10/10 01:47:34;;;;;;;0.00;0.00;;;;;;;13.59;97.07;100698.22;4987747;28;20054;-74
2023/10/10 01:50:07;;;;;;;0.00;0.00;;;;;;;13.59;96.90;100703.72;4943703;28;20054;-74
2023/10/10 01:52:35;;;;;;;0.00;0.00;;;;;;;13.54;97.15;100700.16;4964937;28;20104;-75
2023/10/10 01:55:00;;;;;;;0.00;0.00;;;;;;;13.51;97.21;100697.97;4961238;28;20517;-75
2023/10/10 01:57:26;;;;;;;0.00;0.00;;;;;;;13.43;97.73;100702.91;4981452;28;20745;-76
2023/10/10 01:59:52;;;;;;;0.00;0.00;;;;;;;13.44;97.34;100710.03;4947797;28;20027;-76
2023/10/10 02:02:24;;;;;;;0.00;0.00;;;;;;;13.36;97.50;100691.41;4961448;28;20058;-76
2023/10/10 02:04:52;;;;;;;0.00;0.00;;;;;;;13.34;97.31;100687.25;4980396;28;20038;-77
2023/10/10 02:07:23;;;;;;;0.00;0.00;;;;;;;13.31;97.48;100691.38;4950224;28;20039;-75
2023/10/10 02:12:33;;;;;;;0.00;0.00;;;;;;;13.34;96.85;100688.09;4957071;28;20030;-75
2023/10/10 02:15:01;;;;;;;0.00;0.00;;;;;;;13.38;96.89;100683.69;4969238;28;20162;-75
2023/10/10 02:17:29;;;;;;;0.00;0.00;;;;;;;13.39;96.84;100685.34;4974183;28;20041;-76
2023/10/10 02:20:19;;;;;;;0.00;0.00;;;;;;;13.33;97.33;100680.94;4941393;28;20022;-75
2023/10/10 02:22:49;;;;;;;0.00;0.00;;;;;;;13.33;97.07;100680.09;4946443;28;20037;-76
2023/10/10 02:27:56;;;;;;;0.00;0.00;;;;;;;13.25;96.92;100681.50;4960879;28;20051;-76
2023/10/10 02:30:34;;;;;;;0.00;0.00;;;;;;;13.25;96.64;100684.25;4978076;28;20055;-75
2023/10/10 02:33:30;;;;;;;0.00;0.00;;;;;;;13.19;97.00;100679.88;4955885;28;20166;-76
2023/10/10 02:35:56;;;;;;;0.00;0.00;;;;;;;13.16;96.83;100685.91;4967167;28;20035;-76
2023/10/10 02:38:39;;;;;;;0.00;0.00;;;;;;;13.12;97.43;100693.06;4944497;28;20082;-76
2023/10/10 02:41:26;;;;;;;0.00;0.00;;;;;;;13.07;97.33;100678.22;4948817;28;20045;-77
2023/10/10 02:44:09;;;;;;;0.00;0.00;;;;;;;13.03;97.33;100674.38;4962249;28;20023;-75
2023/10/10 02:46:38;;;;;;;0.00;0.00;;;;;;;12.99;97.67;100670.53;4963652;28;20513;-76
2023/10/10 02:51:55;;;;;;;0.00;0.00;;;;;;;12.98;97.45;100668.06;4963071;28;20327;-76
2023/10/10 02:56:48;;;;;;;0.00;0.00;;;;;;;12.89;97.50;100662.31;4973700;28;20038;-75
2023/10/10 02:59:21;;;;;;;0.00;0.00;;;;;;;12.81;98.01;100646.44;4967874;28;20035;-76
2023/10/10 03:01:57;;;;;;;0.00;0.00;;;;;;;12.80;98.14;100642.84;4962646;28;20027;-76
2023/10/10 03:04:52;;;;;;;0.00;0.00;;;;;;;12.83;97.91;100652.44;4968224;28;20023;-76
2023/10/10 03:07:09;;;;;;;0.00;0.00;;;;;;;12.82;97.98;100648.06;4948828;28;20458;-76
2023/10/10 03:12:30;;;;;;;0.00;0.00;;;;;;;12.82;98.13;100648.88;4965019;28;20041;-75
2023/10/10 03:18:15;;;;;;;0.00;0.00;;;;;;;12.79;98.51;100632.13;4968762;28;20046;-76
2023/10/10 03:26:34;;;;;;;0.00;0.00;;;;;;;12.72;98.71;100625.03;4951842;28;20027;-77
2023/10/10 03:31:08;;;;;;;0.00;0.00;;;;;;;12.72;98.96;100622.28;4961324;28;20031;-76
2023/10/10 05:25:25;;;;;;;0.00;0.00;;;;;;;12.54;100.00;100567.97;4961794;28;20038;-76
2023/10/10 05:27:58;;;;;;;0.00;0.00;;;;;;;12.63;100.00;100580.03;4962358;28;20500;-75
2023/10/10 05:33:08;;;;;;;0.00;0.00;;;;;;;12.70;100.00;100575.09;4952478;28;20679;-76
2023/10/10 05:35:37;;;;;;;0.00;0.00;;;;;;;12.71;100.00;100571.22;4945618;28;20035;-75
2023/10/10 05:38:09;;;;;;;0.00;0.00;;;;;;;12.79;100.00;100578.09;4959883;28;20073;-76
2023/10/10 05:40:38;;;;;;;0.00;0.00;;;;;;;12.78;100.00;100575.63;4961781;28;20225;-75
2023/10/10 05:43:09;;;;;;;0.00;0.00;;;;;;;12.82;100.00;100573.94;4961012;28;20021;-75
2023/10/10 05:45:37;;;;;;;0.00;0.00;;;;;;;12.80;100.00;100578.91;4963636;28;20027;-74
2023/10/10 05:48:05;;;;;;;0.00;0.00;;;;;;;12.83;100.00;100575.59;4972849;28;20130;-76
2023/10/10 05:50:33;;;;;;;0.00;0.00;;;;;;;12.84;100.00;100571.78;4946244;28;20034;-75
2023/10/10 05:53:05;;;;;;;0.00;0.00;;;;;;;12.84;100.00;100580.81;4973390;28;20030;-75
2023/10/10 05:55:33;;;;;;;0.00;0.00;;;;;;;12.86;100.00;100564.88;4952825;28;20028;-75
2023/10/10 05:58:02;;;;;;;0.00;0.00;;;;;;;12.89;100.00;100571.75;4974427;28;20505;-75
2023/10/10 06:00:36;;;;;;;0.00;0.00;;;;;;;12.88;100.00;100565.44;4962320;28;20118;-73
2023/10/10 06:03:05;;;;;;;0.00;0.00;;;;;;;12.83;100.00;100554.47;4965683;28;20031;-76
2023/10/10 06:05:34;;;;;;;0.00;0.00;;;;;;;12.84;100.00;100558.06;4974695;28;20035;-75
2023/10/10 06:08:01;;;;;;;0.00;0.00;;;;;;;12.80;100.00;100562.44;4976182;28;20078;-76
2023/10/10 06:10:31;;;;;;;0.00;0.00;;;;;;;12.75;100.00;100560.53;4979721;28;20036;-74
2023/10/10 06:13:23;;;;;;;0.00;0.00;;;;;;;12.71;100.00;100554.78;4962146;28;20334;-76
2023/10/10 06:16:12;;;;;;;0.00;0.00;;;;;;;12.72;100.00;100567.41;4965347;28;20030;-75
2023/10/10 06:18:51;;;;;;;0.00;0.00;;;;;;;12.70;100.00;100564.13;4969850;28;20797;-75
2023/10/10 06:21:18;;;;;;;0.00;0.00;;;;;;;12.72;100.00;100572.06;4971418;28;20031;-74
2023/10/10 06:23:44;;;;;;;0.00;0.00;;;;;;;12.62;100.00;100553.69;4944607;28;20478;-74
2023/10/10 06:26:09;;;;;;;0.00;0.00;;;;;;;12.68;100.00;100560.00;4965877;28;20466;-73
2023/10/10 06:28:47;;;;;;;0.00;0.00;;;;;;;12.65;100.00;100555.88;4947530;28;20134;-73
2023/10/10 06:31:17;;;;;;;0.00;0.00;;;;;;;12.66;100.00;100562.19;4956167;28;20043;-76
2023/10/10 06:33:42;;;;;;;0.00;0.00;;;;;;;12.74;100.00;100567.13;4941278;28;20035;-74
2023/10/10 06:41:40;;;;;;;0.00;0.00;;;;;;;12.77;100.00;100563.00;4948509;28;20130;-74
2023/10/10 06:44:13;;;;;;;0.00;0.00;;;;;;;12.86;100.00;100564.06;4939702;28;20119;-76
2023/10/10 06:46:46;;;;;;;0.00;0.00;;;;;;;12.81;100.00;100558.63;4959626;28;20042;-79
2023/10/10 06:49:14;;;;;;;0.00;0.00;;;;;;;12.82;100.00;100538.28;4955664;28;21627;-76
2023/10/10 06:51:45;;;;;;;0.00;0.00;;;;;;;12.95;100.00;100554.16;4943987;28;20787;-76
2023/10/10 06:54:28;;;;;;;0.00;0.00;;;;;;;12.94;100.00;100552.53;4948976;28;20105;-76
2023/10/10 06:57:04;;;;;;;0.00;0.00;;;;;;;13.10;100.00;100562.38;4950644;28;20097;-73
2023/10/10 06:59:30;;;;;;;0.00;0.00;;;;;;;13.23;100.00;100576.63;4964793;28;20051;-73
2023/10/10 07:02:03;;;;;;;0.00;0.00;;;;;;;13.29;100.00;100570.00;4960747;28;20038;-74
2023/10/10 07:04:28;;;;;;;0.00;0.00;;;;;;;13.34;100.00;100577.38;4962379;28;20024;-73
2023/10/10 07:07:00;;;;;;;0.00;0.00;;;;;;;13.36;100.00;100578.78;4941327;28;20105;-75
2023/10/10 07:09:29;;;;;;;0.00;0.00;;;;;;;13.43;100.00;100582.06;4970407;28;20114;-74
2023/10/10 07:11:56;;;;;;;0.00;0.00;;;;;;;13.46;100.00;100577.09;4940504;28;20032;-74
2023/10/10 07:14:25;;;;;;;0.00;0.00;;;;;;;13.53;100.00;100577.59;4929420;29;20027;-75
2023/10/10 07:16:56;;;;;;;0.00;0.00;;;;;;;13.54;100.00;100582.00;4946407;28;20035;-73
2023/10/10 07:19:30;;;;;;;0.00;0.00;;;;;;;13.55;100.00;100573.47;4937207;29;20122;-74
2023/10/10 07:21:56;;;;;;;0.00;0.00;;;;;;;13.64;100.00;100584.69;4974685;28;20035;-75
2023/10/10 07:24:28;;;;;;;0.00;0.00;;;;;;;13.76;100.00;100593.41;4936575;28;20036;-74
2023/10/10 07:27:10;;;;;;;0.00;0.00;;;;;;;13.85;100.00;100590.09;4952665;28;20126;-73
2023/10/10 07:32:16;;;;;;;;;;;;;;;13.95;100.00;100592.78;4959913;28;20059;-74
2023/10/10 07:34:51;;;;;;;0.00;0.00;;;;;;;13.99;100.00;100595.75;4941684;28;19951;-74
2023/10/10 07:37:17;;;;;;;0.00;0.00;;;;;;;14.04;100.00;100593.78;4938528;28;20078;-74
2023/10/10 07:39:55;;;;;;;0.00;0.00;;;;;;;14.06;100.00;100594.34;4940497;28;20046;-74
2023/10/10 07:42:30;;;;;;;0.00;0.00;;;;;;;14.13;100.00;100594.00;4948638;28;20046;-72
2023/10/10 07:44:57;;;;;;;0.00;0.00;;;;;;;14.16;100.00;100593.44;4944169;28;20115;-74
2023/10/10 07:47:26;;;;;;;0.00;0.00;;;;;;;14.24;100.00;100600.28;4947085;28;20028;-73
2023/10/10 07:49:56;;;;;;;0.00;0.00;;;;;;;14.26;100.00;100598.06;4949597;28;20027;-74
2023/10/10 07:52:22;;;;;;;0.00;0.00;;;;;;;14.26;100.00;100584.31;4947927;28;20024;-74
2023/10/10 07:54:53;;;;;;;0.00;0.00;;;;;;;14.28;100.00;100590.31;4939512;28;20034;-74
2023/10/10 07:57:22;;;;;;;0.00;0.00;;;;;;;14.29;100.00;100592.81;4978248;28;20031;-74
2023/10/10 07:59:49;;;;;;;0.00;0.00;;;;;;;14.36;100.00;100589.72;4961071;28;20474;-75
2023/10/10 08:02:24;;;;;;;0.00;0.00;;;;;;;14.43;100.00;100603.97;4947379;28;20035;-74
2023/10/10 08:04:54;;;;;;;0.00;0.00;;;;;;;14.47;100.00;100598.69;4963975;28;20023;-74
2023/10/10 08:07:20;;;;;;;0.00;0.00;;;;;;;14.54;100.00;100598.38;4951122;28;20035;-73
2023/10/10 08:09:48;;;;;;;0.00;0.00;;;;;;;14.63;100.00;100597.50;4949246;28;20027;-73
2023/10/10 08:12:14;;;;;;;0.00;0.00;;;;;;;14.59;100.00;100592.84;4946349;28;20058;-74
2023/10/10 08:14:39;;;;;;;0.00;0.00;;;;;;;14.51;100.00;100577.75;4944561;28;20390;-72
2023/10/10 08:17:21;;;;;;;0.00;0.00;;;;;;;14.56;100.00;100596.16;4968966;28;20364;-74
2023/10/10 08:19:51;;;;;;;0.00;0.00;;;;;;;14.59;100.00;100584.59;4949459;28;20125;-73
2023/10/10 08:22:25;;;;;;;0.00;0.00;;;;;;;14.68;100.00;100593.88;4936971;28;20108;-74
2023/10/10 08:24:54;;;;;;;0.00;0.00;;;;;;;14.71;100.00;100584.22;4961704;28;20031;-73
2023/10/10 08:27:22;;;;;;;0.00;0.00;;;;;;;14.80;100.00;100588.78;4950604;28;20039;-73
2023/10/10 08:29:54;;;;;;;0.00;0.00;;;;;;;14.97;100.00;100595.81;4944303;28;20471;-73
2023/10/10 08:32:19;;;;;;;0.00;0.00;;;;;;;14.98;100.00;100586.41;4933263;28;20058;-75
2023/10/10 08:34:45;;;;;;;0.00;0.00;;;;;;;14.96;100.00;100594.97;4942511;28;20036;-74
2023/10/10 08:37:10;;;;;;;0.00;0.00;;;;;;;15.03;100.00;100599.34;4929047;29;20467;-73
2023/10/10 08:39:36;;;;;;;0.00;0.00;;;;;;;14.99;100.00;100585.31;4944452;28;20038;-74
2023/10/10 08:42:10;;;;;;;0.08;0.08;;;;;;;14.99;100.00;100588.06;4931810;28;20040;-74
2023/10/10 08:44:38;;;;;;;0.00;0.00;;;;;;;15.08;100.00;100597.31;4928626;28;20496;-74
2023/10/10 08:47:16;;;;;;;0.00;0.00;;;;;;;15.13;100.00;100594.53;4944676;28;20042;-74
2023/10/10 08:49:42;;;;;;;0.00;0.00;;;;;;;15.14;100.00;100596.19;4941686;28;20090;-74
2023/10/10 08:52:08;;;;;;;0.00;0.00;;;;;;;15.14;100.00;100598.94;4954907;28;20023;-74
2023/10/10 08:54:35;;;;;;;0.00;0.00;;;;;;;15.10;100.00;100600.63;4944969;28;20171;-74
2023/10/10 08:57:02;;;;;;;0.00;0.00;;;;;;;15.07;100.00;100594.88;4960409;28;20023;-74
2023/10/10 08:59:30;;;;;;;0.00;0.00;;;;;;;15.04;100.00;100596.28;4954084;28;20035;-73
2023/10/10 09:02:05;;;;;;;0.00;0.00;;;;;;;15.14;100.00;100596.19;4943934;28;20129;-73
2023/10/10 09:04:31;;;;;;;0.00;0.00;;;;;;;15.29;100.00;100586.91;4956046;28;20019;-73
2023/10/10 09:09:35;;;;;;;0.00;0.00;;;;;;;15.86;100.00;100600.81;4923234;28;20070;-74
2023/10/10 09:12:03;;;;;;;0.00;0.00;;;;;;;15.84;100.00;100580.16;4942294;28;20023;-74
2023/10/10 09:14:41;;;;;;;0.00;0.00;;;;;;;15.91;100.00;100585.31;4949049;28;20089;-72
2023/10/10 09:17:14;;;;;;;0.00;0.00;;;;;;;15.98;99.55;100599.56;4955570;28;20027;-72
2023/10/10 09:19:48;;;;;;;0.00;0.00;;;;;;;16.10;99.25;100588.06;4958206;28;20782;-74
2023/10/10 09:22:31;;;;;;;0.00;0.00;;;;;;;16.31;98.38;100588.56;4954665;28;20031;-74
2023/10/10 09:25:17;;;;;;;0.00;0.00;;;;;;;16.44;97.05;100598.84;4932470;28;20016;-73
2023/10/10 09:27:57;;;;;;;0.00;0.00;;;;;;;16.28;95.62;100590.00;4960053;28;20159;-73
2023/10/10 09:30:30;;;;;;;0.00;0.00;;;;;;;16.19;94.77;100589.84;4956894;28;20035;-73
2023/10/10 09:33:02;;;;;;;0.00;0.00;;;;;;;16.19;95.70;100598.13;4944479;28;20043;-73
2023/10/10 09:35:28;;;;;;;0.00;0.00;;;;;;;16.26;95.66;100602.44;4953666;28;20118;-74
2023/10/10 09:37:56;;;;;;;0.00;0.00;;;;;;;16.25;94.88;100601.59;4971918;28;20458;-73
2023/10/10 09:40:24;;;;;;;0.00;0.00;;;;;;;16.33;93.56;100613.91;4958210;28;20023;-74
2023/10/10 09:51:16;;;;;;;0.00;0.00;;;;;;;16.20;93.35;100610.78;4947120;28;20078;-74
2023/10/10 09:53:46;;;;;;;0.00;0.00;;;;;;;16.12;93.58;100602.38;4952001;28;20035;-74
2023/10/10 09:56:18;;;;;;;0.00;0.00;;;;;;;16.19;93.62;100603.66;4944761;28;20028;-74
2023/10/10 09:58:44;;;;;;;0.00;0.00;;;;;;;16.30;93.45;100609.00;4942005;28;20086;-74
2023/10/10 10:01:22;;;;;;;0.00;0.00;;;;;;;16.43;92.80;100602.72;4945592;29;20042;-74
2023/10/10 10:04:00;;;;;;;0.00;0.00;;;;;;;17.08;90.97;100606.56;4939461;28;20043;-73
2023/10/10 10:06:51;;;;;;;0.00;0.00;;;;;;;17.54;86.04;100607.63;4942654;28;20027;-73
2023/10/10 10:09:19;;;;;;;0.00;0.00;;;;;;;17.55;84.59;100604.53;4976660;28;20812;-73
2023/10/10 10:11:51;;;;;;;0.00;0.00;;;;;;;17.54;84.14;100608.41;4951310;28;20032;-73
2023/10/10 10:14:35;;;;;;;0.00;0.00;;;;;;;17.65;84.03;100597.94;4942271;28;20026;-74
2023/10/10 10:17:44;;;;;;;0.00;0.00;;;;;;;17.96;81.72;100606.44;4937751;28;20046;-74
2023/10/10 10:20:20;;;;;;;0.00;0.00;;;;;;;18.33;79.91;100602.84;4940934;28;20031;-74
2023/10/10 10:23:00;;;;;;;0.00;0.00;;;;;;;18.63;78.41;100604.84;4939365;28;20030;-74
2023/10/10 10:25:31;;;;;;;0.00;0.00;;;;;;;18.95;76.83;100600.16;4952368;28;20355;-74
2023/10/10 10:28:14;;;;;;;0.00;0.00;;;;;;;19.08;75.98;100597.59;4945278;28;20027;-73
2023/10/10 10:30:50;;;;;;;0.00;0.00;;;;;;;18.91;75.71;100604.69;4944695;28;20024;-73
2023/10/10 10:33:23;;;;;;;0.00;0.00;;;;;;;18.73;76.39;100591.84;4934969;29;20046;-76
2023/10/10 10:35:58;;;;;;;0.00;0.00;;;;;;;18.69;77.34;100610.22;4962588;28;20553;-75
2023/10/10 10:38:23;;;;;;;0.00;0.00;;;;;;;18.54;76.51;100601.19;4967257;28;20023;-73
2023/10/10 10:40:50;;;;;;;0.00;0.00;;;;;;;18.37;77.20;100598.28;4941604;28;20122;-74
2023/10/10 10:43:31;;;;;;;0.00;0.00;;;;;;;18.41;77.95;100602.06;4945536;28;20477;-74
2023/10/10 10:46:17;;;;;;;0.00;0.00;;;;;;;18.58;77.83;100595.84;4950070;28;20510;-74
2023/10/10 10:49:02;;;;;;;0.00;0.00;;;;;;;18.95;76.93;100596.56;4946168;28;20469;-74
2023/10/10 10:51:41;;;;;;;0.00;0.00;;;;;;;19.31;75.74;100590.84;4937082;28;20038;-75
2023/10/10 10:54:08;;;;;;;0.00;0.00;;;;;;;19.66;73.73;100585.38;4967788;28;20029;-74
2023/10/10 10:59:13;;;;;;;0.00;0.00;;;;;;;20.84;70.19;100585.53;4993796;28;20031;-73
2023/10/10 11:01:47;;;;;;;0.00;0.00;;;;;;;20.79;69.41;100557.91;4951130;28;20030;-75
2023/10/10 11:04:24;;;;;;;0.00;0.00;;;;;;;20.84;69.11;100572.44;4964065;28;20114;-75
2023/10/10 11:06:51;;;;;;;0.00;0.00;;;;;;;20.82;67.76;100583.09;4947434;28;20122;-74
2023/10/10 11:09:52;;;;;;;0.00;0.00;;;;;;;20.73;67.46;100579.50;4969678;28;20504;-75
2023/10/10 11:12:21;;;;;;;0.00;0.00;;;;;;;20.56;66.63;100567.28;4939446;28;20062;-74
2023/10/10 11:14:49;;;;;;;0.00;0.00;;;;;;;20.37;67.69;100564.84;4956614;28;20030;-74
2023/10/10 11:17:18;;;;;;;0.00;0.00;;;;;;;20.75;68.21;100575.25;4969202;28;20033;-72
2023/10/10 11:19:55;;;;;;;0.00;0.00;;;;;;;21.05;66.02;100571.72;4972070;28;20031;-74
2023/10/10 11:22:40;;;;;;;0.00;0.00;;;;;;;21.38;65.72;100569.09;4951484;28;20175;-74
2023/10/10 11:25:11;;;;;;;0.00;0.00;;;;;;;21.90;64.50;100572.72;4974067;28;20027;-74
2023/10/10 11:27:43;;;;;;;0.00;0.00;;;;;;;23.17;59.89;100562.94;4960411;28;20030;-74
2023/10/10 11:30:11;;;;;;;0.00;0.00;;;;;;;25.79;52.64;100578.94;4964488;28;20042;-74
2023/10/10 11:32:45;;;;;;;0.00;0.00;;;;;;;26.72;47.99;100573.63;4978957;28;20074;-75
2023/10/10 11:35:22;;;;;;;0.00;0.00;;;;;;;25.55;49.56;100561.19;4951676;28;20027;-74
2023/10/10 11:37:58;;;;;;;0.00;0.00;;;;;;;24.71;51.97;100565.09;4956363;28;20109;-75
2023/10/10 11:43:11;;;;;;;0.00;0.00;;;;;;;26.00;49.88;100569.38;4967740;28;20066;-73
2023/10/10 11:45:40;;;;;;;0.00;0.00;;;;;;;26.87;48.56;100564.28;4968052;28;20015;-73
2023/10/10 11:48:13;;;;;;;0.00;0.00;;;;;;;28.12;44.05;100564.53;4964263;28;20268;-74
2023/10/10 11:50:46;;;;;;;0.00;0.00;;;;;;;26.61;44.88;100556.56;4944303;28;20030;-74
2023/10/10 11:53:14;;;;;;;0.00;0.00;;;;;;;25.82;46.84;100560.56;4956184;28;20516;-74
2023/10/10 11:55:41;;;;;;;0.00;0.00;;;;;;;25.84;47.56;100564.63;4964243;28;20466;-73
2023/10/10 11:58:07;;;;;;;0.00;0.00;;;;;;;25.63;47.82;100564.13;4963003;28;20043;-74
2023/10/10 12:00:42;;;;;;;0.00;0.00;;;;;;;24.61;49.50;100551.66;4965784;28;20034;-74
2023/10/10 12:03:10;;;;;;;0.00;0.00;;;;;;;24.13;51.26;100546.72;4974896;28;20828;-73
2023/10/10 12:05:36;;;;;;;0.00;0.00;;;;;;;24.00;52.07;100554.31;4948781;28;20069;-74
2023/10/10 12:08:05;;;;;;;0.00;0.00;;;;;;;24.06;51.94;100554.91;4950675;28;20058;-74
2023/10/10 12:10:47;;;;;;;0.00;0.00;;;;;;;24.02;52.07;100535.25;4949080;28;20465;-74
2023/10/10 12:13:35;;;;;;;0.00;0.00;;;;;;;24.41;51.10;100540.31;4968618;28;20109;-74
2023/10/10 12:16:10;;;;;;;0.00;0.00;;;;;;;25.87;48.61;100540.66;4979587;28;20462;-74
2023/10/10 12:18:43;;;;;;;0.00;0.00;;;;;;;26.51;46.44;100529.94;4959744;28;20046;-73
2023/10/10 12:21:10;;;;;;;0.00;0.00;;;;;;;29.14;44.05;100549.50;4932217;29;20030;-74
2023/10/10 12:59:03;;;;;;;0.00;0.00;;;;;;;28.31;38.79;100498.91;4940792;29;20055;-74
2023/10/10 13:01:32;;;;;;;0.00;0.00;;;;;;;26.91;41.10;100486.59;4937579;29;20043;-73
2023/10/10 13:03:59;;;;;;;0.00;0.00;;;;;;;26.16;43.12;100491.66;4931506;28;20043;-75
2023/10/10 13:06:25;;;;;;;0.00;0.00;;;;;;;25.75;44.49;100491.22;4927924;29;20034;-73
2023/10/10 13:11:20;;;;;;;0.00;0.00;;;;;;;25.85;44.55;100476.63;4919508;29;20031;-73
2023/10/10 13:13:56;;;;;;;0.00;0.00;;;;;;;25.95;44.76;100464.81;4913503;29;20027;-74
2023/10/10 13:16:52;;;;;;;0.00;0.00;;;;;;;26.39;44.01;100490.88;4915530;29;20028;-73
2023/10/10 13:19:14;;;;;;;0.00;0.00;;;;;;;26.73;44.13;100486.28;4916842;29;21350;-74
2023/10/10 13:21:42;;;;;;;0.00;0.00;;;;;;;27.47;43.93;100451.34;4931876;28;20043;-73
2023/10/10 13:24:11;;;;;;;0.00;0.00;;;;;;;29.16;39.99;100473.91;4930370;28;21135;-74
2023/10/10 13:26:38;;;;;;;0.00;0.00;;;;;;;29.81;37.35;100435.63;4942910;28;20083;-74
2023/10/10 13:29:05;;;;;;;0.00;0.00;;;;;;;30.91;36.63;100463.59;4935854;28;20120;-73
2023/10/10 13:31:31;;;;;;;0.00;0.00;;;;;;;32.66;34.75;100446.25;4923691;29;20031;-75
2023/10/10 13:33:57;;;;;;;0.00;0.00;;;;;;;35.07;31.24;100467.81;4932095;28;20024;-79
2023/10/10 13:36:22;;;;;;;0.00;0.00;;;;;;;35.26;28.34;100458.50;4916976;29;20731;-74
2023/10/10 13:38:50;;;;;;;0.00;0.00;;;;;;;33.39;30.43;100469.84;4903480;29;20087;-74
2023/10/10 13:41:18;;;;;;;0.00;0.00;;;;;;;31.80;32.99;100451.25;4923284;29;20024;-74
2023/10/10 13:43:48;;;;;;;0.00;0.00;;;;;;;30.58;34.88;100454.34;4938669;28;20099;-74
2023/10/10 13:46:20;;;;;;;0.00;0.00;;;;;;;29.75;37.13;100445.66;4926843;29;20028;-74
2023/10/10 13:48:46;;;;;;;0.00;0.00;;;;;;;30.92;36.68;100445.44;4923245;29;20039;-74
2023/10/10 13:51:15;;;;;;;0.00;0.00;;;;;;;32.76;33.89;100439.72;4939195;28;20070;-74
2023/10/10 13:53:43;;;;;;;0.00;0.00;;;;;;;34.95;30.97;100429.50;4926096;29;20046;-74
2023/10/10 13:56:10;;;;;;;0.00;0.00;;;;;;;35.20;29.09;100463.09;4934362;28;20036;-73
2023/10/10 13:58:36;;;;;;;0.00;0.00;;;;;;;35.53;29.18;100451.91;4934831;28;20051;-73
2023/10/10 14:01:18;;;;;;;0.00;0.00;;;;;;;36.22;28.14;100442.69;4940617;28;20045;-75
2023/10/10 14:03:49;;;;;;;0.00;0.00;;;;;;;37.27;25.89;100455.09;4939208;28;20108;-75
2023/10/10 14:06:17;;;;;;;0.00;0.00;;;;;;;36.52;26.73;100454.97;4952047;28;20110;-74
2023/10/10 14:08:49;;;;;;;0.00;0.00;;;;;;;36.38;27.20;100446.81;4919083;28;20043;-74
2023/10/10 14:11:25;;;;;;;0.00;0.00;;;;;;;35.99;27.69;100461.47;4929644;28;20087;-74
2023/10/10 14:13:54;;;;;;;0.00;0.00;;;;;;;34.26;28.61;100446.84;4933194;28;20117;-74
2023/10/10 14:16:21;;;;;;;0.00;0.00;;;;;;;31.89;32.02;100455.66;4942909;28;20119;-74
2023/10/10 14:18:50;;;;;;;0.00;0.00;;;;;;;30.60;34.72;100440.63;4895178;28;20085;-73
2023/10/10 14:21:23;;;;;;;0.00;0.00;;;;;;;31.46;33.80;100425.56;4954210;28;20366;-74
2023/10/10 14:23:49;;;;;;;0.00;0.00;;;;;;;31.97;33.14;100457.25;4922524;28;20031;-73
2023/10/10 14:26:18;;;;;;;0.00;0.00;;;;;;;32.59;32.33;100449.94;4940682;28;20031;-75
2023/10/10 14:28:51;;;;;;;0.00;0.00;;;;;;;31.96;33.24;100450.75;4921582;28;20028;-74
2023/10/10 14:31:21;;;;;;;0.00;0.00;;;;;;;31.99;33.29;100426.50;4926234;29;20032;-75
2023/10/10 14:33:46;;;;;;;0.00;0.00;;;;;;;31.73;33.67;100439.19;4925313;28;20118;-75
2023/10/10 14:36:12;;;;;;;0.00;0.00;;;;;;;30.71;34.22;100441.44;4921359;28;20114;-73
2023/10/10 14:38:44;;;;;;;0.00;0.00;;;;;;;29.73;36.72;100453.69;4958071;28;20036;-75
2023/10/10 14:41:17;;;;;;;0.00;0.00;;;;;;;28.80;37.86;100443.53;4945732;28;20486;-74
2023/10/10 14:43:47;;;;;;;0.00;0.00;;;;;;;28.39;39.61;100447.16;4943639;28;20038;-76
2023/10/10 14:46:22;;;;;;;0.00;0.00;;;;;;;28.38;40.22;100442.72;4930051;29;20119;-73
2023/10/10 14:49:00;;;;;;;0.00;0.00;;;;;;;28.49;39.85;100436.41;4943503;28;20178;-72
2023/10/10 14:51:33;;;;;;;0.00;0.00;;;;;;;28.68;39.47;100432.56;4934670;28;20055;-72
2023/10/10 14:54:11;;;;;;;0.00;0.00;;;;;;;28.86;39.30;100424.25;4931560;28;20019;-73
2023/10/10 14:56:50;;;;;;;0.00;0.00;;;;;;;28.40;39.81;100428.28;4940799;28;20034;-73
2023/10/10 14:59:35;;;;;;;0.00;0.00;;;;;;;27.84;40.89;100418.88;4919935;29;20541;-74
2023/10/10 15:02:04;;;;;;;0.00;0.00;;;;;;;28.58;40.50;100424.81;4920779;28;20035;-74
2023/10/10 15:04:31;;;;;;;0.00;0.00;;;;;;;28.62;40.25;100423.69;4933991;28;20031;-76
2023/10/10 15:06:58;;;;;;;0.00;0.00;;;;;;;28.03;40.95;100410.28;4938840;28;20123;-74
2023/10/10 15:09:25;;;;;;;0.00;0.00;;;;;;;27.51;42.34;100414.88;4945619;28;20492;-75